sim
Sign-in with your pilot id or email,
or register
Callsign
Passwort

Schedule Details

Flight Number: DLH1711 (2)
Departure: Dubrovnik Airport (LDDU) at 13:35
Arrival: Munich Airport (EDDM) at 15:20
Route: Lufthansa Passenger Schedule. Enter filed route here before submitting Pirep.

Weather Information
Getting current METAR information for LDDU 202030Z VRB03KT CAVOK 24/11 Q1015 NOSIG
Getting current METAR information for EDDM 202050Z 00000KT CAVOK 11/10 Q1016 NOSIG

Schedule Frequency

Route Map